Time;durP1;ratioP1;P1;durP2;ratioP2;P2;SDS_P1;SDS_P2;PMS_P1;PMS_P2;Temp;Humidity;BMP_temperature;BMP_pressure;BME280_temperature;BME280_humidity;BME280_pressure;Samples;Min_cycle;Max_cycle;Signal;HPM_P1;HPM_P2
2023/11/06 00:01:01;;;;;;;14.30;7.70;;;;;;;11.94;100.00;99429.33;105853;1256;65666;-57
2023/11/06 00:03:29;;;;;;;13.80;8.90;;;;;;;12.01;100.00;99427.48;105597;1253;72721;-54
2023/11/06 00:05:56;;;;;;;16.70;9.40;;;;;;;12.09;100.00;99419.77;105745;1257;60496;-55
2023/11/06 00:08:26;;;;;;;17.70;9.50;;;;;;;12.16;100.00;99422.25;105659;1256;60197;-55
2023/11/06 00:10:53;;;;;;;16.80;9.10;;;;;;;12.22;100.00;99423.05;105823;1256;73078;-59
2023/11/06 00:13:21;;;;;;;17.70;10.80;;;;;;;12.26;100.00;99413.94;105250;1250;67512;-56
2023/11/06 00:15:49;;;;;;;21.70;11.40;;;;;;;12.32;100.00;99403.73;105433;1253;72701;-56
2023/11/06 00:18:17;;;;;;;20.20;9.70;;;;;;;12.38;100.00;99395.17;105530;1256;60507;-55
2023/11/06 00:20:45;;;;;;;17.70;10.10;;;;;;;12.43;100.00;99386.43;105350;1257;59170;-58
2023/11/06 00:23:12;;;;;;;17.40;9.30;;;;;;;12.48;100.00;99384.14;105521;1253;71835;-56
2023/11/06 00:25:40;;;;;;;19.70;10.50;;;;;;;12.53;100.00;99387.34;105629;1255;66904;-55
2023/11/06 00:28:08;;;;;;;22.30;10.60;;;;;;;12.57;100.00;99387.38;105546;1256;72653;-56
2023/11/06 00:30:36;;;;;;;18.80;10.40;;;;;;;12.61;100.00;99384.60;105541;1256;60396;-56
2023/11/06 00:33:04;;;;;;;15.60;9.30;;;;;;;12.65;100.00;99385.72;105383;1256;59675;-56
2023/11/06 00:35:33;;;;;;;14.50;8.70;;;;;;;12.72;100.00;99388.55;105472;1256;73018;-56
2023/11/06 00:38:00;;;;;;;13.60;8.60;;;;;;;12.75;100.00;99385.73;105578;1256;66885;-56
2023/11/06 00:40:29;;;;;;;12.60;8.10;;;;;;;12.78;100.00;99379.87;105343;1251;72799;-56
2023/11/06 00:42:57;;;;;;;16.50;9.20;;;;;;;12.80;100.00;99366.64;105519;1257;60684;-56
2023/11/06 00:45:26;;;;;;;15.80;8.70;;;;;;;12.78;100.00;99361.39;105584;1251;59570;-56
2023/11/06 00:47:54;;;;;;;17.20;10.80;;;;;;;12.77;100.00;99360.17;105524;1252;72547;-56
2023/11/06 00:50:23;;;;;;;17.30;9.70;;;;;;;12.76;100.00;99356.55;105610;1256;67001;-55
2023/11/06 00:52:51;;;;;;;13.20;8.80;;;;;;;12.75;100.00;99351.86;105705;1255;71899;-54
2023/11/06 00:55:19;;;;;;;15.50;8.80;;;;;;;12.75;100.00;99343.27;105489;1257;62118;-56
2023/11/06 00:57:49;;;;;;;13.20;8.50;;;;;;;12.78;100.00;99348.17;105602;1256;60069;-55
2023/11/06 01:00:18;;;;;;;16.70;7.80;;;;;;;12.81;100.00;99350.34;105665;1256;73156;-56
2023/11/06 01:02:45;;;;;;;17.00;8.50;;;;;;;12.83;100.00;99346.33;105547;1256;67404;-55
2023/11/06 01:05:14;;;;;;;15.40;8.50;;;;;;;12.88;100.00;99339.23;105573;1256;72719;-56
2023/11/06 01:07:42;;;;;;;14.10;8.90;;;;;;;12.93;100.00;99327.22;105535;1251;61722;-55
2023/11/06 01:10:10;;;;;;;14.30;8.40;;;;;;;12.98;100.00;99327.92;105620;1256;60101;-56
2023/11/06 01:12:39;;;;;;;12.50;7.80;;;;;;;13.02;100.00;99327.80;105571;1256;71776;-56
2023/11/06 01:15:08;;;;;;;13.20;7.80;;;;;;;13.06;100.00;99331.20;105460;1250;66917;-56
2023/11/06 01:17:36;;;;;;;12.30;7.10;;;;;;;13.09;100.00;99332.48;105549;1253;71400;-56
2023/11/06 01:20:04;;;;;;;11.00;6.30;;;;;;;13.14;100.00;99323.08;105605;1260;61159;-56
2023/11/06 01:22:34;;;;;;;8.80;5.50;;;;;;;13.19;100.00;99319.55;105626;1252;59436;-56
2023/11/06 01:25:09;;;;;;;11.60;6.20;;;;;;;13.22;100.00;99322.26;105334;1259;73120;-56
2023/11/06 01:27:37;;;;;;;11.60;6.40;;;;;;;13.26;100.00;99328.34;105530;1256;66899;-56
2023/11/06 01:30:06;;;;;;;15.60;6.00;;;;;;;13.29;100.00;99329.47;105606;1256;72780;-56
2023/11/06 01:32:34;;;;;;;14.30;6.20;;;;;;;13.33;100.00;99326.47;105584;1256;60691;-56
2023/11/06 01:35:02;;;;;;;9.70;5.20;;;;;;;13.36;100.00;99328.71;105513;1257;60170;-55
2023/11/06 01:37:30;;;;;;;10.10;4.60;;;;;;;13.40;100.00;99328.98;105610;1250;73044;-56
2023/11/06 01:39:58;;;;;;;10.30;5.80;;;;;;;13.42;100.00;99328.92;105595;1256;65636;-57
2023/11/06 01:42:26;;;;;;;10.00;4.70;;;;;;;13.44;100.00;99331.26;105510;1256;72691;-57
2023/11/06 01:44:54;;;;;;;10.40;4.30;;;;;;;13.48;100.00;99329.72;105617;1266;60556;-54
2023/11/06 01:47:22;;;;;;;10.00;4.80;;;;;;;13.50;100.00;99321.39;105561;1256;60581;-55
2023/11/06 01:49:50;;;;;;;11.60;4.80;;;;;;;13.50;100.00;99320.70;105524;1256;72611;-56
2023/11/06 01:52:18;;;;;;;9.00;4.00;;;;;;;13.45;100.00;99313.37;105220;1256;65844;-54
2023/11/06 01:54:46;;;;;;;10.20;4.30;;;;;;;13.44;100.00;99311.04;105528;1257;72713;-55
2023/11/06 01:57:15;;;;;;;9.10;3.70;;;;;;;13.48;100.00;99307.23;105581;1251;60650;-55
2023/11/06 01:59:44;;;;;;;15.50;4.30;;;;;;;13.48;100.00;99302.39;105433;1257;60323;-55
2023/11/06 02:02:11;;;;;;;11.60;4.70;;;;;;;13.46;100.00;99298.73;105530;1251;73795;-57
2023/11/06 02:04:47;;;;;;;10.60;4.30;;;;;;;13.43;100.00;99295.60;105525;1257;65704;-55
2023/11/06 02:07:15;;;;;;;8.90;4.10;;;;;;;13.37;100.00;99294.23;105474;1256;72727;-56
2023/11/06 02:09:44;;;;;;;9.90;3.50;;;;;;;13.33;100.00;99294.38;105559;1256;61688;-55
2023/11/06 02:12:11;;;;;;;8.30;3.80;;;;;;;13.31;100.00;99292.71;105602;1260;60066;-56
2023/11/06 02:14:52;;;;;;;7.90;3.60;;;;;;;13.32;100.00;99289.95;105627;1251;73865;-56
2023/11/06 02:17:21;;;;;;;8.30;3.40;;;;;;;13.32;100.00;99293.17;105627;1257;66941;-55
2023/11/06 02:19:48;;;;;;;10.10;3.70;;;;;;;13.31;100.00;99291.09;105632;1256;72397;-57
2023/11/06 02:22:20;;;;;;;9.90;3.70;;;;;;;13.31;100.00;99285.75;105668;1255;61756;-55
2023/11/06 02:24:48;;;;;;;9.10;3.30;;;;;;;13.30;100.00;99281.86;105676;1250;60582;-55
2023/11/06 02:27:17;;;;;;;9.40;3.40;;;;;;;13.29;100.00;99282.91;105577;1251;72726;-55
2023/11/06 02:29:46;;;;;;;11.00;3.60;;;;;;;13.29;100.00;99276.96;105827;1255;65691;-56
2023/11/06 02:32:13;;;;;;;10.20;3.70;;;;;;;13.29;100.00;99270.04;105425;1255;71444;-55
2023/11/06 02:34:41;;;;;;;7.90;3.10;;;;;;;13.26;100.00;99262.52;105792;1251;61631;-55
2023/11/06 02:37:09;;;;;;;10.30;3.50;;;;;;;13.26;100.00;99259.05;105577;1256;60584;-55
2023/11/06 02:39:37;;;;;;;9.20;3.70;;;;;;;13.25;100.00;99259.16;105436;1256;73948;-57
2023/11/06 02:42:06;;;;;;;12.30;3.60;;;;;;;13.25;100.00;99256.23;105661;1258;65780;-55
2023/11/06 02:44:34;;;;;;;9.60;3.90;;;;;;;13.25;100.00;99254.66;105509;1252;71940;-55
2023/11/06 02:47:02;;;;;;;12.50;4.50;;;;;;;13.26;100.00;99261.18;105282;1256;61154;-55
2023/11/06 02:49:30;;;;;;;14.30;4.30;;;;;;;13.28;100.00;99265.83;105837;1256;60611;-56
2023/11/06 02:51:57;;;;;;;8.50;3.70;;;;;;;13.29;100.00;99265.59;105467;1251;73884;-56
2023/11/06 02:54:25;;;;;;;14.30;3.90;;;;;;;13.30;100.00;99264.14;105469;1257;65519;-57
2023/11/06 02:56:53;;;;;;;8.90;3.60;;;;;;;13.31;100.00;99271.09;105513;1251;72724;-56
2023/11/06 02:59:22;;;;;;;9.10;3.50;;;;;;;13.33;100.00;99268.36;105836;1257;60533;-59
2023/11/06 03:01:50;;;;;;;12.80;4.20;;;;;;;13.31;100.00;99264.92;105485;1256;60940;-56
2023/11/06 03:04:18;;;;;;;10.00;3.70;;;;;;;13.31;100.00;99266.70;105532;1253;72650;-56
2023/11/06 03:06:46;;;;;;;11.30;3.70;;;;;;;13.34;100.00;99268.52;105542;1256;65619;-56
2023/11/06 03:09:14;;;;;;;9.10;3.20;;;;;;;13.33;100.00;99262.69;105658;1256;71452;-56
2023/11/06 03:11:42;;;;;;;11.70;3.60;;;;;;;13.33;100.00;99257.98;105569;1251;61839;-58
2023/11/06 03:14:09;;;;;;;10.00;3.90;;;;;;;13.34;100.00;99252.81;105216;1251;60516;-56
2023/11/06 03:16:40;;;;;;;10.40;3.90;;;;;;;13.35;100.00;99261.30;105477;1262;73849;-56
2023/11/06 03:19:08;;;;;;;9.60;4.00;;;;;;;13.35;100.00;99264.74;105512;1256;65991;-56
2023/11/06 03:21:35;;;;;;;7.60;3.80;;;;;;;13.35;100.00;99264.23;105573;1252;72689;-57
2023/11/06 03:24:04;;;;;;;10.20;3.40;;;;;;;13.38;100.00;99262.42;105502;1256;61712;-56
2023/11/06 03:26:31;;;;;;;8.50;3.40;;;;;;;13.39;100.00;99254.85;105628;1251;60436;-56
2023/11/06 03:28:59;;;;;;;8.80;3.30;;;;;;;13.41;100.00;99246.14;105774;1251;72538;-56
2023/11/06 03:31:27;;;;;;;9.80;2.60;;;;;;;13.42;100.00;99243.92;105763;1256;65899;-56
2023/11/06 03:33:54;;;;;;;10.30;3.00;;;;;;;13.45;100.00;99246.44;105832;1254;72831;-59
2023/11/06 03:36:23;;;;;;;10.70;3.20;;;;;;;13.48;100.00;99247.78;105710;1253;61725;-56
2023/11/06 03:38:51;;;;;;;11.10;3.30;;;;;;;13.55;100.00;99243.29;105574;1257;61021;-59
2023/11/06 03:41:18;;;;;;;11.70;3.50;;;;;;;13.60;100.00;99228.73;105544;1256;73974;-61
2023/11/06 03:43:51;;;;;;;7.10;2.70;;;;;;;13.64;100.00;99226.73;105754;1265;65662;-61
2023/11/06 03:46:20;;;;;;;9.70;3.00;;;;;;;13.67;100.00;99225.95;105633;1257;71433;-59
2023/11/06 03:56:31;;;;;;;8.80;2.30;;;;;;;13.76;100.00;99225.20;102313;1293;600137;-56
2023/11/06 03:58:58;;;;;;;8.90;2.60;;;;;;;13.78;100.00;99221.37;104745;1270;60692;-57
2023/11/06 04:01:26;;;;;;;11.90;2.80;;;;;;;13.81;100.00;99217.29;104843;1264;59958;-58
2023/11/06 04:03:58;;;;;;;6.90;2.00;;;;;;;13.80;100.00;99208.02;104679;1265;72272;-57
2023/11/06 04:06:26;;;;;;;7.90;2.20;;;;;;;13.80;100.00;99198.32;104755;1264;65791;-57
2023/11/06 04:08:54;;;;;;;10.10;2.30;;;;;;;13.81;100.00;99200.95;104963;1264;72932;-56
2023/11/06 04:11:21;;;;;;;6.60;2.20;;;;;;;13.81;100.00;99204.27;104930;1263;62364;-59
2023/11/06 04:13:49;;;;;;;8.50;4.10;;;;;;;13.81;100.00;99206.36;104680;1264;60168;-57
2023/11/06 04:16:18;;;;;;;9.00;3.30;;;;;;;13.81;100.00;99205.46;104822;1264;71526;-57
2023/11/06 04:18:45;;;;;;;11.70;2.70;;;;;;;13.83;100.00;99204.40;107727;1264;66508;-56
2023/11/06 04:21:13;;;;;;;10.30;3.90;;;;;;;13.84;100.00;99208.26;104889;1268;73136;-57
2023/11/06 04:23:41;;;;;;;9.60;2.40;;;;;;;13.85;100.00;99206.86;104970;1266;60917;-57
2023/11/06 04:26:09;;;;;;;9.50;2.30;;;;;;;13.86;100.00;99203.90;104577;1267;59758;-57
2023/11/06 04:28:37;;;;;;;9.50;2.60;;;;;;;13.86;100.00;99202.61;104564;1264;73082;-61
2023/11/06 04:31:05;;;;;;;8.40;4.80;;;;;;;13.89;100.00;99199.29;104894;1264;67014;-59
2023/11/06 04:33:32;;;;;;;8.70;4.80;;;;;;;13.93;100.00;99196.48;104857;1270;71424;-59
2023/11/06 04:36:00;;;;;;;8.80;3.10;;;;;;;13.99;100.00;99198.86;105551;1257;61719;-58
2023/11/06 04:38:28;;;;;;;8.70;2.60;;;;;;;14.03;100.00;99203.35;105585;1256;59641;-62
2023/11/06 04:40:56;;;;;;;9.50;3.20;;;;;;;14.04;100.00;99200.06;105636;1256;73076;-60
2023/11/06 04:43:24;;;;;;;9.50;2.50;;;;;;;14.07;100.00;99202.54;105797;1251;67037;-62
2023/11/06 04:45:51;;;;;;;7.30;2.70;;;;;;;14.11;100.00;99201.78;105389;1251;73288;-61
2023/11/06 04:48:19;;;;;;;8.70;3.20;;;;;;;14.10;100.00;99202.19;105607;1251;61703;-63
2023/11/06 04:50:47;;;;;;;9.90;2.60;;;;;;;14.09;100.00;99194.10;105654;1251;59548;-62
2023/11/06 04:53:15;;;;;;;7.90;3.40;;;;;;;14.15;100.00;99199.81;105874;1256;73086;-61
2023/11/06 04:55:43;;;;;;;8.30;3.40;;;;;;;14.18;100.00;99197.85;106047;1256;65501;-60
2023/11/06 04:58:10;;;;;;;6.50;1.80;;;;;;;14.23;100.00;99198.56;105633;1253;72865;-60
2023/11/06 05:00:38;;;;;;;9.00;2.80;;;;;;;14.21;100.00;99200.04;105516;1257;60807;-60
2023/11/06 05:03:06;;;;;;;6.80;2.20;;;;;;;14.23;100.00;99197.41;105822;1254;59973;-59
2023/11/06 05:05:34;;;;;;;6.20;2.40;;;;;;;14.29;100.00;99196.05;105479;1251;72491;-57
2023/11/06 05:08:02;;;;;;;8.90;3.10;;;;;;;14.39;100.00;99197.66;105513;1251;66914;-57
2023/11/06 05:10:30;;;;;;;8.80;2.80;;;;;;;14.44;100.00;99192.96;105316;1251;72189;-57
2023/11/06 05:12:58;;;;;;;5.80;2.20;;;;;;;14.46;100.00;99190.23;105566;1257;60426;-57
2023/11/06 05:15:25;;;;;;;9.10;2.30;;;;;;;14.50;100.00;99190.44;105665;1256;60123;-59
2023/11/06 05:17:54;;;;;;;8.80;3.00;;;;;;;14.52;100.00;99191.90;105335;1257;73099;-57
2023/11/06 05:20:22;;;;;;;8.90;2.90;;;;;;;14.54;100.00;99194.23;105552;1252;67022;-57
2023/11/06 05:22:50;;;;;;;9.60;3.90;;;;;;;14.56;100.00;99191.77;105600;1256;72668;-56
2023/11/06 05:25:18;;;;;;;8.80;2.80;;;;;;;14.57;100.00;99190.41;105452;1252;62234;-59
2023/11/06 05:27:46;;;;;;;7.00;2.70;;;;;;;14.55;100.00;99187.80;105557;1255;60077;-56
2023/11/06 05:30:14;;;;;;;7.10;2.60;;;;;;;14.52;100.00;99183.45;105576;1252;73036;-57
2023/11/06 05:32:41;;;;;;;8.00;2.20;;;;;;;14.55;100.00;99182.30;105592;1256;66979;-56
2023/11/06 05:35:09;;;;;;;13.30;3.40;;;;;;;14.57;100.00;99180.41;105798;1257;72745;-57
2023/11/06 05:37:38;;;;;;;10.20;2.70;;;;;;;14.59;100.00;99180.77;105272;1257;60441;-57
2023/11/06 05:40:09;;;;;;;5.90;2.10;;;;;;;14.61;100.00;99180.92;105527;1256;59640;-57
2023/11/06 05:42:36;;;;;;;6.60;2.60;;;;;;;14.63;100.00;99177.66;105456;1251;71829;-56
2023/11/06 05:45:07;;;;;;;7.70;2.80;;;;;;;14.64;100.00;99179.99;105520;1251;67047;-57
2023/11/06 05:47:35;;;;;;;5.90;2.40;;;;;;;14.64;100.00;99178.00;105431;1251;72715;-56
2023/11/06 05:50:04;;;;;;;9.00;2.50;;;;;;;14.65;100.00;99174.98;105478;1251;61702;-56
2023/11/06 05:52:33;;;;;;;7.60;2.70;;;;;;;14.69;100.00;99172.16;105600;1257;60055;-57
2023/11/06 05:55:01;;;;;;;7.50;2.90;;;;;;;14.73;100.00;99163.98;105575;1251;71947;-58
2023/11/06 05:57:29;;;;;;;6.90;2.60;;;;;;;14.78;100.00;99166.49;105579;1256;66092;-56
2023/11/06 05:59:57;;;;;;;6.90;2.20;;;;;;;14.81;100.00;99165.33;105380;1255;72696;-56
2023/11/06 06:02:24;;;;;;;5.90;2.90;;;;;;;14.84;100.00;99167.16;105523;1257;60446;-57
2023/11/06 06:04:52;;;;;;;8.30;3.20;;;;;;;14.89;100.00;99167.41;105853;1251;60044;-58
2023/11/06 06:07:20;;;;;;;5.60;2.50;;;;;;;14.96;100.00;99164.95;105239;1257;74084;-56
2023/11/06 06:09:47;;;;;;;7.20;2.60;;;;;;;15.02;100.00;99157.50;105340;1257;66122;-56
2023/11/06 06:12:17;;;;;;;4.80;2.20;;;;;;;15.06;100.00;99158.98;105506;1255;71439;-56
2023/11/06 06:14:45;;;;;;;6.90;2.90;;;;;;;15.09;100.00;99160.59;105511;1257;61779;-56
2023/11/06 06:17:13;;;;;;;5.30;2.20;;;;;;;15.12;100.00;99159.33;105503;1251;60582;-56
2023/11/06 06:19:41;;;;;;;6.90;2.30;;;;;;;15.13;100.00;99158.02;105527;1256;73086;-57
2023/11/06 06:22:09;;;;;;;7.40;2.50;;;;;;;15.14;100.00;99154.73;105311;1257;65705;-56
2023/11/06 06:24:37;;;;;;;7.20;2.60;;;;;;;15.15;100.00;99153.42;105537;1256;72626;-56
2023/11/06 06:27:05;;;;;;;9.30;2.30;;;;;;;15.17;100.00;99153.52;105532;1256;61786;-57
2023/11/06 06:29:32;;;;;;;7.20;2.50;;;;;;;15.18;100.00;99153.37;105415;1257;59596;-57
2023/11/06 06:32:00;;;;;;;8.60;2.70;;;;;;;15.19;100.00;99149.55;105567;1256;73058;-57
2023/11/06 06:34:28;;;;;;;6.60;2.30;;;;;;;15.18;100.00;99146.97;105472;1251;65672;-59
2023/11/06 06:36:56;;;;;;;5.90;2.40;;;;;;;15.17;100.00;99145.80;105508;1255;71373;-59
2023/11/06 06:39:23;;;;;;;6.20;2.20;;;;;;;15.16;100.00;99141.34;105223;1257;60334;-59
2023/11/06 06:41:52;;;;;;;4.60;2.10;;;;;;;15.16;100.00;99143.36;105512;1256;59781;-59
2023/11/06 06:44:20;;;;;;;5.70;2.60;;;;;;;15.15;100.00;99143.18;105643;1251;71907;-58
2023/11/06 06:46:48;;;;;;;5.60;2.50;;;;;;;15.13;100.00;99142.65;105210;1258;65779;-58
2023/11/06 06:49:15;;;;;;;5.40;2.70;;;;;;;15.12;100.00;99136.23;105528;1251;72675;-58
2023/11/06 06:51:43;;;;;;;7.40;2.10;;;;;;;15.13;100.00;99136.19;105534;1257;61681;-58
2023/11/06 06:54:11;;;;;;;10.10;3.50;;;;;;;15.13;100.00;99134.45;105505;1257;59765;-58
2023/11/06 06:56:39;;;;;;;9.40;2.80;;;;;;;15.13;100.00;99136.30;105676;1257;73045;-59
2023/11/06 06:59:07;;;;;;;7.20;2.80;;;;;;;15.14;100.00;99133.26;105554;1257;66855;-57
2023/11/06 07:01:34;;;;;;;6.90;2.70;;;;;;;15.16;100.00;99135.75;105519;1252;72004;-57
2023/11/06 07:04:03;;;;;;;5.40;2.50;;;;;;;15.18;100.00;99129.01;105497;1255;61716;-58
2023/11/06 07:06:31;;;;;;;10.00;3.10;;;;;;;15.19;100.00;99129.51;105787;1251;60678;-59
2023/11/06 07:08:59;;;;;;;5.80;2.70;;;;;;;15.20;100.00;99131.41;105344;1256;73650;-58
2023/11/06 07:11:29;;;;;;;6.10;2.50;;;;;;;15.21;100.00;99132.68;105574;1258;66619;-58
2023/11/06 07:13:57;;;;;;;5.90;2.30;;;;;;;15.21;100.00;99128.85;106031;1254;71502;-58
2023/11/06 07:16:25;;;;;;;7.90;2.50;;;;;;;15.22;100.00;99128.13;105478;1256;61682;-58
2023/11/06 07:26:30;;;;;;;10.50;2.90;;;;;;;15.28;100.00;99143.14;102251;1293;600379;-58
2023/11/06 07:28:58;;;;;;;6.10;2.50;;;;;;;15.29;100.00;99136.52;104734;1266;61686;-59
2023/11/06 07:31:26;;;;;;;6.40;3.30;;;;;;;15.30;100.00;99138.70;105128;1267;59339;-59
2023/11/06 07:33:53;;;;;;;7.40;3.00;;;;;;;15.34;100.00;99134.91;104669;1266;71056;-59
2023/11/06 07:36:21;;;;;;;5.50;2.30;;;;;;;15.36;100.00;99135.78;104411;1270;66751;-59
2023/11/06 07:38:49;;;;;;;6.20;2.60;;;;;;;15.39;100.00;99136.98;104617;1270;73186;-59
2023/11/06 07:41:17;;;;;;;6.80;2.70;;;;;;;15.41;100.00;99137.67;104311;1268;209991;-59
2023/11/06 07:43:45;;;;;;;5.40;1.80;;;;;;;15.43;100.00;99139.41;104649;1264;61567;-59
2023/11/06 07:46:17;;;;;;;6.50;2.10;;;;;;;15.46;100.00;99139.17;104738;1263;73721;-59
2023/11/06 07:48:46;;;;;;;8.50;2.20;;;;;;;15.47;100.00;99140.23;104608;1268;66420;-60
2023/11/06 07:51:14;;;;;;;6.50;2.20;;;;;;;15.46;100.00;99145.44;104582;1268;74867;-62
2023/11/06 07:53:42;;;;;;;7.70;1.80;;;;;;;15.44;100.00;99151.27;104406;1264;64445;-61
2023/11/06 07:56:10;;;;;;;6.00;2.20;;;;;;;15.42;100.00;99152.88;104669;1264;63700;-61
2023/11/06 07:58:41;;;;;;;5.50;2.00;;;;;;;15.41;100.00;99154.00;104579;1264;74871;-60
2023/11/06 08:01:11;;;;;;;7.20;2.90;;;;;;;15.41;100.00;99147.60;104674;1264;67058;-61
2023/11/06 08:03:38;;;;;;;6.50;2.60;;;;;;;15.41;100.00;99144.35;104746;1266;72766;-62
2023/11/06 08:06:07;;;;;;;7.20;2.20;;;;;;;15.42;100.00;99149.82;105129;1258;61945;-60
2023/11/06 08:08:35;;;;;;;8.10;2.10;;;;;;;15.43;100.00;99149.27;105061;1258;60106;-60
2023/11/06 08:11:03;;;;;;;5.40;2.80;;;;;;;15.47;100.00;99154.27;105200;1256;73073;-61
2023/11/06 08:13:33;;;;;;;7.80;2.30;;;;;;;15.52;100.00;99155.85;104886;1261;66952;-61
2023/11/06 08:16:03;;;;;;;6.30;3.00;;;;;;;15.54;100.00;99153.53;105074;1257;73330;-61
2023/11/06 08:18:33;;;;;;;4.60;1.90;;;;;;;15.56;100.00;99162.11;105187;1254;64306;-61
2023/11/06 08:21:03;;;;;;;8.20;2.70;;;;;;;15.57;100.00;99165.39;105285;1254;60030;-59
2023/11/06 08:23:31;;;;;;;6.00;2.50;;;;;;;15.58;100.00;99164.30;105504;1260;76698;-60
2023/11/06 08:25:59;;;;;;;7.10;2.40;;;;;;;15.60;100.00;99171.03;105344;1257;65793;-59
2023/11/06 08:28:27;;;;;;;6.60;2.20;;;;;;;15.62;100.00;99168.86;105212;1254;73109;-60
2023/11/06 08:30:55;;;;;;;9.20;2.80;;;;;;;15.66;100.00;99166.83;105411;1253;61923;-60
2023/11/06 08:41:09;;;;;;;7.10;2.60;;;;;;;15.67;100.00;99162.02;102211;1292;600364;-62
2023/11/06 08:43:37;;;;;;;5.80;2.50;;;;;;;15.61;100.00;99154.82;104619;1266;60509;-62
2023/11/06 08:46:04;;;;;;;6.50;2.60;;;;;;;15.56;100.00;99150.19;104513;1271;59312;-62
2023/11/06 08:48:33;;;;;;;6.50;2.60;;;;;;;15.51;100.00;99146.96;105340;1259;72304;-62
2023/11/06 08:51:01;;;;;;;6.80;2.70;;;;;;;15.49;100.00;99146.55;105287;1253;70787;-62
2023/11/06 08:53:29;;;;;;;8.60;2.80;;;;;;;15.49;100.00;99144.94;105303;1259;75980;-61
2023/11/06 08:55:58;;;;;;;8.50;3.50;;;;;;;15.53;100.00;99141.48;105379;1253;62273;-61
2023/11/06 08:58:26;;;;;;;6.50;3.90;;;;;;;15.56;100.00;99144.56;105504;1256;60116;-60
2023/11/06 09:00:53;;;;;;;7.10;3.00;;;;;;;15.57;100.00;99133.81;105473;1253;72341;-61
2023/11/06 09:03:22;;;;;;;7.20;2.90;;;;;;;15.59;100.00;99115.86;105407;1258;65768;-62
2023/11/06 09:05:50;;;;;;;8.30;3.40;;;;;;;15.62;100.00;99115.44;105456;1259;71460;-61
2023/11/06 09:08:18;;;;;;;7.20;2.80;;;;;;;15.63;100.00;99124.79;105394;1253;62028;-60
2023/11/06 09:10:46;;;;;;;7.30;3.80;;;;;;;15.62;100.00;99130.41;105469;1253;60473;-60
2023/11/06 09:13:13;;;;;;;8.10;3.70;;;;;;;15.61;100.00;99135.21;105479;1257;73134;-61
2023/11/06 09:15:41;;;;;;;7.80;3.80;;;;;;;15.63;100.00;99128.48;105425;1259;67293;-61
2023/11/06 09:18:09;;;;;;;5.40;3.00;;;;;;;15.71;100.00;99128.23;105418;1253;72726;-59
2023/11/06 09:20:37;;;;;;;6.20;2.80;;;;;;;15.79;100.00;99125.17;105400;1257;62137;-60
2023/11/06 09:23:06;;;;;;;6.20;3.40;;;;;;;15.88;100.00;99124.86;105104;1255;60929;-61
2023/11/06 09:25:34;;;;;;;8.00;4.30;;;;;;;15.93;100.00;99129.44;105342;1257;73056;-60
2023/11/06 09:28:02;;;;;;;7.60;3.50;;;;;;;15.95;100.00;99135.25;105399;1253;69260;-59
2023/11/06 09:30:30;;;;;;;7.60;3.00;;;;;;;15.95;100.00;99142.00;105409;1253;73182;-60
2023/11/06 09:32:59;;;;;;;8.40;3.90;;;;;;;15.95;100.00;99145.45;105362;1257;63816;-59
2023/11/06 09:35:28;;;;;;;8.50;3.40;;;;;;;15.91;100.00;99149.34;105465;1253;62828;-59
2023/11/06 09:37:56;;;;;;;4.90;2.80;;;;;;;15.88;100.00;99155.71;105385;1252;75442;-59
2023/11/06 09:40:24;;;;;;;7.80;2.40;;;;;;;15.83;100.00;99158.55;105497;1258;65770;-59
2023/11/06 09:42:52;;;;;;;6.10;2.70;;;;;;;15.78;100.00;99164.89;105541;1253;75251;-60
2023/11/06 09:45:19;;;;;;;7.60;4.00;;;;;;;15.76;100.00;99170.94;105260;1256;63129;-59
2023/11/06 09:47:51;;;;;;;8.10;3.80;;;;;;;15.77;100.00;99176.87;105510;1256;61861;-59
2023/11/06 09:50:21;;;;;;;8.00;3.60;;;;;;;15.79;100.00;99177.71;105364;1256;73068;-59
2023/11/06 09:52:51;;;;;;;7.50;3.40;;;;;;;15.79;100.00;99177.36;105312;1256;68349;-59
2023/11/06 09:55:19;;;;;;;8.20;4.60;;;;;;;15.82;100.00;99177.98;105467;1254;75648;-59
2023/11/06 09:57:48;;;;;;;8.20;3.40;;;;;;;15.87;100.00;99180.92;105470;1257;62644;-59
2023/11/06 10:00:16;;;;;;;8.10;4.20;;;;;;;15.92;100.00;99184.72;105542;1256;62197;-59
2023/11/06 10:02:44;;;;;;;9.00;3.80;;;;;;;15.97;100.00;99183.73;105261;1254;71893;-59
2023/11/06 10:05:14;;;;;;;6.00;3.20;;;;;;;16.03;100.00;99185.80;105443;1257;68613;-59
2023/11/06 10:07:45;;;;;;;7.10;2.90;;;;;;;16.08;100.00;99183.39;105509;1257;72687;-59
2023/11/06 10:10:14;;;;;;;;;;;;;;;16.10;100.00;99181.73;105401;1256;64172;-59
2023/11/06 10:12:42;;;;;;;5.20;2.90;;;;;;;16.12;100.00;99174.77;105546;1257;62458;-60
2023/11/06 10:15:11;;;;;;;5.60;2.40;;;;;;;16.14;100.00;99176.73;105458;1257;76204;-59
2023/11/06 10:17:40;;;;;;;7.70;2.80;;;;;;;16.17;100.00;99177.45;105475;1254;69269;-59
2023/11/06 10:20:14;;;;;;;8.30;3.20;;;;;;;16.23;100.00;99183.52;105527;1257;71451;-59
2023/11/06 10:22:55;;;;;;;7.30;2.80;;;;;;;16.32;100.00;99193.29;105301;1267;62102;-58
2023/11/06 10:25:27;;;;;;;7.20;3.60;;;;;;;16.41;100.00;99187.61;105507;1256;60051;-58
2023/11/06 10:27:56;;;;;;;8.00;3.70;;;;;;;16.48;100.00;99190.27;105475;1254;74337;-58
2023/11/06 10:30:25;;;;;;;7.60;3.60;;;;;;;16.54;100.00;99193.48;105416;1258;69815;-58
2023/11/06 10:32:53;;;;;;;7.60;2.80;;;;;;;16.58;100.00;99193.77;105453;1259;71439;-57
2023/11/06 10:35:23;;;;;;;7.20;2.60;;;;;;;16.60;100.00;99194.33;105455;1256;64213;-57
2023/11/06 10:37:51;;;;;;;6.40;2.90;;;;;;;16.62;100.00;99192.56;105793;1257;61532;-59
2023/11/06 10:40:19;;;;;;;6.20;2.60;;;;;;;16.66;100.00;99186.59;105251;1253;75505;-58
2023/11/06 10:42:51;;;;;;;4.60;2.40;;;;;;;16.69;100.00;99183.30;105417;1255;69131;-57
2023/11/06 10:45:20;;;;;;;5.30;3.00;;;;;;;16.69;100.00;99170.98;105359;1259;75793;-57
2023/11/06 10:47:52;;;;;;;10.20;2.90;;;;;;;16.67;100.00;99171.65;105650;1253;63299;-58
2023/11/06 10:50:23;;;;;;;4.40;2.00;;;;;;;16.65;100.00;99178.63;105449;1257;62292;-57
2023/11/06 10:52:54;;;;;;;5.80;2.40;;;;;;;16.62;100.00;99179.92;105416;1256;74848;-58
2023/11/06 10:55:22;;;;;;;7.60;2.80;;;;;;;16.62;100.00;99178.18;105420;1257;67257;-57
2023/11/06 10:58:00;;;;;;;8.00;3.60;;;;;;;16.67;100.00;99184.81;105317;1257;75062;-57
2023/11/06 11:00:31;;;;;;;6.30;2.20;;;;;;;16.73;100.00;99182.89;105492;1257;63602;-57
2023/11/06 11:03:00;;;;;;;5.20;2.20;;;;;;;16.80;100.00;99185.05;105521;1256;63368;-57
2023/11/06 11:05:29;;;;;;;7.90;2.90;;;;;;;16.89;100.00;99185.93;105552;1253;74789;-58
2023/11/06 11:08:02;;;;;;;5.40;2.30;;;;;;;17.01;100.00;99184.30;105367;1257;69229;-57
2023/11/06 11:10:31;;;;;;;8.60;3.20;;;;;;;17.15;100.00;99179.81;105519;1257;74518;-57
2023/11/06 11:13:02;;;;;;;7.10;2.70;;;;;;;17.26;100.00;99181.48;105469;1257;64660;-56
2023/11/06 11:15:34;;;;;;;7.90;3.00;;;;;;;17.34;100.00;99180.31;105249;1255;62824;-57
2023/11/06 11:18:09;;;;;;;4.10;2.20;;;;;;;17.42;100.00;99174.32;105375;1254;74797;-57
2023/11/06 11:20:55;;;;;;;4.60;2.00;;;;;;;17.53;100.00;99173.90;105277;1257;69398;-57
2023/11/06 11:23:42;;;;;;;7.80;2.50;;;;;;;17.65;100.00;99177.88;105328;1257;74594;-57
2023/11/06 11:26:12;;;;;;;5.80;1.90;;;;;;;17.75;100.00;99173.09;105533;1254;63479;-57
2023/11/06 11:29:00;;;;;;;5.00;1.90;;;;;;;17.82;100.00;99168.29;105513;1266;61323;-57
2023/11/06 11:31:43;;;;;;;4.40;1.60;;;;;;;17.87;100.00;99164.29;105558;1259;75582;-57
2023/11/06 11:34:30;;;;;;;3.50;1.90;;;;;;;17.90;100.00;99166.05;105309;1258;69644;-57
2023/11/06 11:36:58;;;;;;;5.20;1.80;;;;;;;17.88;100.00;99162.03;105279;1257;75327;-56
2023/11/06 11:39:29;;;;;;;3.70;1.80;;;;;;;17.82;100.00;99161.75;105556;1259;63898;-57
2023/11/06 11:42:00;;;;;;;7.90;2.00;;;;;;;17.73;100.00;99162.27;105207;1260;61987;-56
2023/11/06 11:44:28;;;;;;;5.20;1.90;;;;;;;17.67;100.00;99164.13;105449;1252;75631;-56